SWA9865 KMCO-KBNA
Flight info
| Callsign | SWA9865 |
|---|---|
| Flight time | 1h 30m |
| Altitude | 36000 |
| Route | JEEMY4 PAINN SHRKS YANTI THRSR SWFFT3 |
| Aircraft | B738/M-SDE2E3FGHIRWXY/LB1 |
Departure
| Time | 2026-05-03 22:07 |
|---|---|
| Airport | Orlando International Airport (KMCO) |
Arrival
| Time | 2026-05-03 23:38 |
|---|---|
| Airport | Nashville International Airport (KBNA) |
| Time | Latitude | Longitude | Altitude | Speed | Heading |
|---|---|---|---|---|---|
| 2026-05-03 21:40 | 28.42790 | -81.31586 | 101 ft | 0 kts | 45° |
| 2026-05-03 21:54 | 28.42782 | -81.31594 | 101 ft | 3 kts | 45° |
| 2026-05-03 21:54 | 28.42769 | -81.31609 | 99 ft | 3 kts | 62° |
| 2026-05-03 21:54 | 28.42768 | -81.31610 | 99 ft | 0 kts | 64° |
| 2026-05-03 21:55 | 28.42765 | -81.31617 | 100 ft | 3 kts | 38° |
| 2026-05-03 21:55 | 28.42748 | -81.31623 | 101 ft | 3 kts | 332° |
| 2026-05-03 21:55 | 28.42739 | -81.31615 | 100 ft | 0 kts | 292° |
| 2026-05-03 22:00 | 28.42739 | -81.31616 | 101 ft | 0 kts | 292° |
| 2026-05-03 22:00 | 28.42740 | -81.31619 | 101 ft | 1 kts | 292° |
| 2026-05-03 22:00 | 28.42740 | -81.31620 | 99 ft | 0 kts | 292° |
| 2026-05-03 22:01 | 28.42741 | -81.31621 | 99 ft | 0 kts | 291° |
| 2026-05-03 22:01 | 28.42733 | -81.31654 | 101 ft | 10 kts | 248° |
| 2026-05-03 22:01 | 28.42717 | -81.31710 | 101 ft | 6 kts | 252° |
| 2026-05-03 22:01 | 28.42711 | -81.31759 | 103 ft | 6 kts | 269° |
| 2026-05-03 22:02 | 28.42710 | -81.31810 | 105 ft | 8 kts | 269° |
| 2026-05-03 22:02 | 28.42709 | -81.31883 | 106 ft | 10 kts | 269° |
| 2026-05-03 22:02 | 28.42699 | -81.31960 | 106 ft | 10 kts | 239° |
| 2026-05-03 22:02 | 28.42635 | -81.31988 | 108 ft | 11 kts | 181° |
| 2026-05-03 22:03 | 28.42556 | -81.31988 | 108 ft | 12 kts | 179° |
| 2026-05-03 22:03 | 28.42465 | -81.31988 | 108 ft | 14 kts | 179° |
| 2026-05-03 22:03 | 28.42363 | -81.31986 | 108 ft | 15 kts | 179° |
| 2026-05-03 22:03 | 28.42254 | -81.31985 | 108 ft | 16 kts | 179° |
| 2026-05-03 22:04 | 28.42132 | -81.31984 | 106 ft | 19 kts | 180° |
| 2026-05-03 22:04 | 28.42006 | -81.31983 | 103 ft | 14 kts | 179° |
| 2026-05-03 22:04 | 28.41899 | -81.31981 | 102 ft | 17 kts | 179° |
| 2026-05-03 22:04 | 28.41786 | -81.31980 | 101 ft | 10 kts | 180° |
| 2026-05-03 22:05 | 28.41708 | -81.31980 | 99 ft | 13 kts | 180° |
| 2026-05-03 22:05 | 28.41614 | -81.31978 | 99 ft | 10 kts | 179° |
| 2026-05-03 22:05 | 28.41560 | -81.31997 | 99 ft | 8 kts | 227° |
| 2026-05-03 22:05 | 28.41544 | -81.32061 | 100 ft | 8 kts | 268° |
| 2026-05-03 22:06 | 28.41544 | -81.32129 | 101 ft | 9 kts | 269° |
| 2026-05-03 22:06 | 28.41569 | -81.32192 | 101 ft | 10 kts | 337° |
| 2026-05-03 22:06 | 28.41646 | -81.32197 | 100 ft | 21 kts | 360° |
| 2026-05-03 22:06 | 28.42100 | -81.32201 | 106 ft | 107 kts | 359° |
| 2026-05-03 22:07 | 28.43084 | -81.32208 | 212 ft | 167 kts | 2° |
| 2026-05-03 22:07 | 28.44315 | -81.32250 | 1031 ft | 185 kts | 4° |
| 2026-05-03 22:07 | 28.45633 | -81.32282 | 1646 ft | 193 kts | 2° |
| 2026-05-03 22:07 | 28.47002 | -81.32292 | 1878 ft | 200 kts | 4° |
| 2026-05-03 22:08 | 28.48426 | -81.32294 | 2120 ft | 206 kts | 4° |
| 2026-05-03 22:08 | 28.49893 | -81.32291 | 2309 ft | 218 kts | 3° |
| 2026-05-03 22:08 | 28.51477 | -81.32290 | 2292 ft | 230 kts | 2° |
| 2026-05-03 22:08 | 28.53077 | -81.32306 | 2311 ft | 231 kts | 2° |
| 2026-05-03 22:09 | 28.54708 | -81.32326 | 2336 ft | 235 kts | 1° |
| 2026-05-03 22:09 | 28.56351 | -81.32549 | 2562 ft | 239 kts | 352° |
| 2026-05-03 22:09 | 28.57972 | -81.32894 | 3206 ft | 237 kts | 352° |
| 2026-05-03 22:10 | 28.61271 | -81.33572 | 4808 ft | 246 kts | 351° |
| 2026-05-03 22:10 | 28.62964 | -81.33927 | 5614 ft | 248 kts | 347° |
| 2026-05-03 22:10 | 28.64666 | -81.34364 | 6416 ft | 251 kts | 345° |
| 2026-05-03 22:10 | 28.66366 | -81.34814 | 6904 ft | 254 kts | 345° |
| 2026-05-03 22:11 | 28.68111 | -81.35273 | 7657 ft | 257 kts | 343° |
| 2026-05-03 22:11 | 28.69860 | -81.35729 | 8435 ft | 259 kts | 343° |
| 2026-05-03 22:11 | 28.71604 | -81.36180 | 9186 ft | 262 kts | 342° |
| 2026-05-03 22:11 | 28.73401 | -81.36644 | 9970 ft | 265 kts | 341° |
| 2026-05-03 22:12 | 28.75220 | -81.37094 | 10631 ft | 270 kts | 342° |
| 2026-05-03 22:12 | 28.77076 | -81.37491 | 11298 ft | 274 kts | 342° |
| 2026-05-03 22:12 | 28.78972 | -81.37882 | 11971 ft | 278 kts | 342° |
| 2026-05-03 22:12 | 28.80896 | -81.38279 | 12630 ft | 283 kts | 342° |
| 2026-05-03 22:13 | 28.82821 | -81.38678 | 13304 ft | 286 kts | 341° |
| 2026-05-03 22:13 | 28.84798 | -81.39091 | 13991 ft | 290 kts | 341° |
| 2026-05-03 22:13 | 28.86799 | -81.39510 | 14603 ft | 294 kts | 341° |
| 2026-05-03 22:13 | 28.88822 | -81.39935 | 15238 ft | 296 kts | 341° |
| 2026-05-03 22:14 | 28.90859 | -81.40364 | 15840 ft | 300 kts | 341° |
| 2026-05-03 22:14 | 28.92923 | -81.40800 | 15992 ft | 300 kts | 341° |
| 2026-05-03 22:14 | 28.94971 | -81.41230 | 16029 ft | 299 kts | 341° |
| 2026-05-03 22:14 | 28.97062 | -81.41564 | 16062 ft | 319 kts | 346° |
| 2026-05-03 22:15 | 28.99365 | -81.41818 | 16092 ft | 346 kts | 347° |
| 2026-05-03 22:15 | 29.01858 | -81.42067 | 16079 ft | 370 kts | 348° |
| 2026-05-03 22:15 | 29.04518 | -81.42338 | 16057 ft | 393 kts | 348° |
| 2026-05-03 22:15 | 29.07298 | -81.42635 | 16047 ft | 404 kts | 348° |
| 2026-05-03 22:16 | 29.10101 | -81.42937 | 16034 ft | 406 kts | 348° |
| 2026-05-03 22:16 | 29.12884 | -81.43215 | 16024 ft | 406 kts | 349° |
| 2026-05-03 22:16 | 29.15696 | -81.43479 | 16031 ft | 405 kts | 349° |
| 2026-05-03 22:16 | 29.18517 | -81.43740 | 16024 ft | 405 kts | 349° |
| 2026-05-03 22:17 | 29.21312 | -81.43999 | 16035 ft | 405 kts | 349° |
| 2026-05-03 22:17 | 29.24128 | -81.44263 | 16053 ft | 408 kts | 349° |
| 2026-05-03 22:17 | 29.26985 | -81.44535 | 16489 ft | 413 kts | 349° |
| 2026-05-03 22:17 | 29.29859 | -81.44808 | 17132 ft | 413 kts | 349° |
| 2026-05-03 22:18 | 29.32727 | -81.45081 | 17710 ft | 415 kts | 349° |
| 2026-05-03 22:18 | 29.35621 | -81.45357 | 18190 ft | 420 kts | 349° |
| 2026-05-03 22:18 | 29.38550 | -81.45637 | 18617 ft | 424 kts | 349° |
| 2026-05-03 22:18 | 29.41468 | -81.45915 | 19058 ft | 427 kts | 349° |
| 2026-05-03 22:19 | 29.44440 | -81.46198 | 19530 ft | 429 kts | 349° |
| 2026-05-03 22:19 | 29.47436 | -81.46484 | 19978 ft | 432 kts | 348° |
| 2026-05-03 22:19 | 29.50451 | -81.46771 | 20413 ft | 435 kts | 348° |
| 2026-05-03 22:19 | 29.53437 | -81.47056 | 20842 ft | 437 kts | 348° |
| 2026-05-03 22:20 | 29.56493 | -81.47348 | 21330 ft | 440 kts | 348° |
| 2026-05-03 22:20 | 29.59562 | -81.47639 | 21757 ft | 443 kts | 348° |
| 2026-05-03 22:20 | 29.62645 | -81.47921 | 22184 ft | 446 kts | 348° |
| 2026-05-03 22:20 | 29.65720 | -81.48198 | 22587 ft | 449 kts | 348° |
| 2026-05-03 22:21 | 29.68847 | -81.48479 | 22989 ft | 451 kts | 348° |
| 2026-05-03 22:21 | 29.72003 | -81.48762 | 23384 ft | 454 kts | 348° |
| 2026-05-03 22:21 | 29.75137 | -81.49045 | 23755 ft | 457 kts | 348° |
| 2026-05-03 22:21 | 29.78315 | -81.49332 | 24073 ft | 460 kts | 348° |
| 2026-05-03 22:22 | 29.81522 | -81.49623 | 24392 ft | 462 kts | 348° |
| 2026-05-03 22:22 | 29.84737 | -81.49914 | 24722 ft | 465 kts | 348° |
| 2026-05-03 22:22 | 29.87979 | -81.50211 | 25012 ft | 467 kts | 347° |
| 2026-05-03 22:22 | 29.91126 | -81.50790 | 25302 ft | 459 kts | 337° |
| 2026-05-03 22:23 | 29.94188 | -81.51828 | 25632 ft | 457 kts | 334° |
| 2026-05-03 22:23 | 29.97218 | -81.52983 | 25950 ft | 458 kts | 333° |
| 2026-05-03 22:23 | 30.00253 | -81.54165 | 26233 ft | 461 kts | 333° |
| 2026-05-03 22:23 | 30.03315 | -81.55338 | 26517 ft | 464 kts | 333° |
| 2026-05-03 22:24 | 30.06399 | -81.56490 | 26795 ft | 467 kts | 334° |
| 2026-05-03 22:24 | 30.09511 | -81.57627 | 27079 ft | 469 kts | 334° |
| 2026-05-03 22:24 | 30.12599 | -81.58739 | 27351 ft | 471 kts | 334° |
| 2026-05-03 22:24 | 30.15743 | -81.59863 | 27664 ft | 474 kts | 334° |
| 2026-05-03 22:25 | 30.18903 | -81.60990 | 27933 ft | 476 kts | 334° |
| 2026-05-03 22:25 | 30.22078 | -81.62124 | 28189 ft | 478 kts | 334° |
| 2026-05-03 22:25 | 30.25260 | -81.63263 | 28454 ft | 480 kts | 334° |
| 2026-05-03 22:25 | 30.28454 | -81.64407 | 28771 ft | 480 kts | 333° |
| 2026-05-03 22:26 | 30.31641 | -81.65549 | 29184 ft | 479 kts | 333° |
| 2026-05-03 22:26 | 30.34783 | -81.66675 | 29658 ft | 476 kts | 333° |
| 2026-05-03 22:26 | 30.37955 | -81.67814 | 30052 ft | 475 kts | 333° |
| 2026-05-03 22:26 | 30.41122 | -81.68954 | 30367 ft | 475 kts | 333° |
| 2026-05-03 22:27 | 30.44272 | -81.70089 | 30717 ft | 473 kts | 333° |
| 2026-05-03 22:27 | 30.47372 | -81.71206 | 31103 ft | 471 kts | 333° |
| 2026-05-03 22:27 | 30.50496 | -81.72332 | 31491 ft | 468 kts | 333° |
| 2026-05-03 22:27 | 30.53609 | -81.73456 | 31847 ft | 467 kts | 332° |
| 2026-05-03 22:28 | 30.56715 | -81.74579 | 32166 ft | 466 kts | 332° |
| 2026-05-03 22:28 | 30.59802 | -81.75719 | 32512 ft | 461 kts | 329° |
| 2026-05-03 22:28 | 30.62684 | -81.77218 | 32863 ft | 446 kts | 320° |
| 2026-05-03 22:28 | 30.65216 | -81.79122 | 33222 ft | 431 kts | 311° |
| 2026-05-03 22:29 | 30.67552 | -81.81294 | 33611 ft | 428 kts | 310° |
| 2026-05-03 22:29 | 30.69088 | -81.82738 | 33828 ft | 427 kts | 310° |
| 2026-05-03 22:29 | 30.71402 | -81.84917 | 34135 ft | 426 kts | 310° |
| 2026-05-03 22:29 | 30.74464 | -81.87789 | 34492 ft | 425 kts | 310° |
| 2026-05-03 22:30 | 30.75998 | -81.89221 | 34639 ft | 425 kts | 310° |
| 2026-05-03 22:30 | 30.78312 | -81.91377 | 34845 ft | 426 kts | 310° |
| 2026-05-03 22:30 | 30.80636 | -81.93535 | 35083 ft | 426 kts | 310° |
| 2026-05-03 22:31 | 30.85302 | -81.97868 | 35192 ft | 431 kts | 310° |
| 2026-05-03 22:31 | 30.89962 | -82.02189 | 35186 ft | 428 kts | 310° |
| 2026-05-03 22:32 | 30.94592 | -82.06479 | 35149 ft | 423 kts | 310° |
| 2026-05-03 22:32 | 30.99195 | -82.10762 | 35201 ft | 422 kts | 310° |
| 2026-05-03 22:33 | 31.03799 | -82.15055 | 35185 ft | 423 kts | 310° |
| 2026-05-03 22:33 | 31.08392 | -82.19341 | 35153 ft | 423 kts | 310° |
| 2026-05-03 22:34 | 31.12963 | -82.23611 | 35138 ft | 424 kts | 310° |
| 2026-05-03 22:34 | 31.17577 | -82.27926 | 35127 ft | 425 kts | 310° |
| 2026-05-03 22:35 | 31.22194 | -82.32249 | 35123 ft | 425 kts | 310° |
| 2026-05-03 22:35 | 31.26795 | -82.36562 | 35119 ft | 426 kts | 310° |
| 2026-05-03 22:36 | 31.31428 | -82.40911 | 35210 ft | 427 kts | 310° |
| 2026-05-03 22:36 | 31.36086 | -82.45292 | 35127 ft | 430 kts | 310° |
| 2026-05-03 22:37 | 31.40757 | -82.49685 | 35127 ft | 430 kts | 310° |
| 2026-05-03 22:37 | 31.45400 | -82.54058 | 35110 ft | 430 kts | 310° |
| 2026-05-03 22:38 | 31.50065 | -82.58459 | 35112 ft | 429 kts | 310° |
| 2026-05-03 22:38 | 31.54692 | -82.62832 | 35110 ft | 429 kts | 310° |
| 2026-05-03 22:39 | 31.59345 | -82.67234 | 35146 ft | 428 kts | 310° |
| 2026-05-03 22:39 | 31.63990 | -82.71636 | 35125 ft | 428 kts | 310° |
| 2026-05-03 22:40 | 31.68561 | -82.75999 | 35094 ft | 418 kts | 310° |
| 2026-05-03 22:40 | 31.73113 | -82.80297 | 35114 ft | 420 kts | 310° |
| 2026-05-03 22:41 | 31.77657 | -82.84616 | 35112 ft | 420 kts | 310° |
| 2026-05-03 22:41 | 31.82711 | -82.88319 | 35132 ft | 450 kts | 329° |
| 2026-05-03 22:42 | 31.88669 | -82.90849 | 35170 ft | 458 kts | 329° |
| 2026-05-03 22:42 | 31.91504 | -82.92364 | 35077 ft | 440 kts | 314° |
| 2026-05-03 22:42 | 31.93786 | -82.94641 | 35120 ft | 424 kts | 306° |
| 2026-05-03 22:43 | 31.98077 | -82.99439 | 35100 ft | 427 kts | 308° |
| 2026-05-03 22:43 | 32.02644 | -83.03920 | 35100 ft | 432 kts | 312° |
| 2026-05-03 22:44 | 32.07477 | -83.08193 | 35134 ft | 434 kts | 314° |
| 2026-05-03 22:44 | 32.12368 | -83.12364 | 35386 ft | 436 kts | 314° |
| 2026-05-03 22:44 | 32.14828 | -83.14449 | 35689 ft | 434 kts | 314° |
| 2026-05-03 22:45 | 32.17250 | -83.16502 | 36038 ft | 432 kts | 314° |
| 2026-05-03 22:45 | 32.22154 | -83.20680 | 36131 ft | 429 kts | 314° |
| 2026-05-03 22:46 | 32.26981 | -83.24811 | 36144 ft | 432 kts | 314° |
| 2026-05-03 22:46 | 32.31870 | -83.29007 | 36139 ft | 435 kts | 314° |
| 2026-05-03 22:47 | 32.36769 | -83.33214 | 36118 ft | 437 kts | 314° |
| 2026-05-03 22:47 | 32.41715 | -83.37463 | 36111 ft | 438 kts | 314° |
| 2026-05-03 22:48 | 32.46651 | -83.41706 | 36130 ft | 438 kts | 314° |
| 2026-05-03 22:48 | 32.51557 | -83.45931 | 36108 ft | 437 kts | 314° |
| 2026-05-03 22:49 | 32.56465 | -83.50164 | 36099 ft | 435 kts | 314° |
| 2026-05-03 22:49 | 32.61353 | -83.54387 | 36107 ft | 433 kts | 315° |
| 2026-05-03 22:50 | 32.66198 | -83.58580 | 36103 ft | 431 kts | 315° |
| 2026-05-03 22:50 | 32.71058 | -83.62790 | 36110 ft | 430 kts | 314° |
| 2026-05-03 22:51 | 32.75868 | -83.66963 | 36114 ft | 430 kts | 315° |
| 2026-05-03 22:51 | 32.80708 | -83.71170 | 36109 ft | 430 kts | 315° |
| 2026-05-03 22:52 | 32.85549 | -83.75383 | 36109 ft | 430 kts | 315° |
| 2026-05-03 22:52 | 32.90391 | -83.79602 | 36118 ft | 431 kts | 315° |
| 2026-05-03 22:53 | 32.95215 | -83.83811 | 36123 ft | 432 kts | 315° |
| 2026-05-03 22:53 | 33.00080 | -83.88062 | 36116 ft | 433 kts | 315° |
| 2026-05-03 22:54 | 33.04933 | -83.92307 | 36126 ft | 435 kts | 316° |
| 2026-05-03 22:54 | 33.09823 | -83.96591 | 36113 ft | 436 kts | 316° |
| 2026-05-03 22:55 | 33.14720 | -84.00888 | 36113 ft | 436 kts | 316° |
| 2026-05-03 22:55 | 33.19589 | -84.05164 | 36121 ft | 437 kts | 316° |
| 2026-05-03 22:56 | 33.24469 | -84.09458 | 36125 ft | 437 kts | 316° |
| 2026-05-03 22:56 | 33.29364 | -84.13770 | 36132 ft | 437 kts | 316° |
| 2026-05-03 22:57 | 33.34240 | -84.18072 | 36145 ft | 436 kts | 316° |
| 2026-05-03 22:57 | 33.39131 | -84.22395 | 36149 ft | 436 kts | 316° |
| 2026-05-03 22:58 | 33.44029 | -84.26728 | 36144 ft | 436 kts | 316° |
| 2026-05-03 22:58 | 33.48881 | -84.31029 | 36152 ft | 436 kts | 316° |
| 2026-05-03 22:59 | 33.53734 | -84.35336 | 36137 ft | 435 kts | 316° |
| 2026-05-03 22:59 | 33.58613 | -84.39672 | 36113 ft | 435 kts | 317° |
| 2026-05-03 23:00 | 33.63518 | -84.43869 | 36093 ft | 441 kts | 327° |
| 2026-05-03 23:00 | 33.69303 | -84.46595 | 36104 ft | 448 kts | 333° |
| 2026-05-03 23:01 | 33.75120 | -84.49218 | 36108 ft | 447 kts | 332° |
| 2026-05-03 23:01 | 33.80924 | -84.51910 | 36110 ft | 446 kts | 332° |
| 2026-05-03 23:02 | 33.86690 | -84.54615 | 36104 ft | 446 kts | 333° |
| 2026-05-03 23:02 | 33.92481 | -84.57336 | 36094 ft | 446 kts | 333° |
| 2026-05-03 23:03 | 33.98271 | -84.60091 | 36118 ft | 444 kts | 330° |
| 2026-05-03 23:03 | 34.03758 | -84.63320 | 36137 ft | 440 kts | 327° |
| 2026-05-03 23:04 | 34.09155 | -84.66730 | 36116 ft | 439 kts | 327° |
| 2026-05-03 23:04 | 34.14590 | -84.70117 | 36126 ft | 439 kts | 328° |
| 2026-05-03 23:05 | 34.20032 | -84.73456 | 36110 ft | 437 kts | 328° |
| 2026-05-03 23:05 | 34.25424 | -84.76754 | 36117 ft | 435 kts | 328° |
| 2026-05-03 23:06 | 34.30819 | -84.80059 | 36105 ft | 434 kts | 328° |
| 2026-05-03 23:06 | 34.36196 | -84.83359 | 36106 ft | 432 kts | 328° |
| 2026-05-03 23:07 | 34.41558 | -84.86655 | 36113 ft | 431 kts | 328° |
| 2026-05-03 23:07 | 34.46905 | -84.89948 | 36103 ft | 430 kts | 328° |
| 2026-05-03 23:08 | 34.52213 | -84.93221 | 36098 ft | 429 kts | 328° |
| 2026-05-03 23:08 | 34.57511 | -84.96492 | 36101 ft | 429 kts | 328° |
| 2026-05-03 23:09 | 34.62836 | -84.99785 | 36111 ft | 429 kts | 328° |
| 2026-05-03 23:09 | 34.68060 | -85.03255 | 36112 ft | 426 kts | 323° |
| 2026-05-03 23:10 | 34.73001 | -85.07146 | 36103 ft | 425 kts | 322° |
| 2026-05-03 23:10 | 34.77953 | -85.11087 | 36109 ft | 425 kts | 323° |
| 2026-05-03 23:10 | 34.80449 | -85.13048 | 35720 ft | 431 kts | 323° |
| 2026-05-03 23:11 | 34.82980 | -85.15023 | 35191 ft | 430 kts | 324° |
| 2026-05-03 23:11 | 34.85512 | -85.16989 | 34572 ft | 430 kts | 324° |
| 2026-05-03 23:11 | 34.88039 | -85.18949 | 33940 ft | 430 kts | 324° |
| 2026-05-03 23:11 | 34.90539 | -85.20888 | 33233 ft | 431 kts | 324° |
| 2026-05-03 23:12 | 34.93067 | -85.22852 | 32535 ft | 431 kts | 324° |
| 2026-05-03 23:12 | 34.95583 | -85.24807 | 32071 ft | 426 kts | 324° |
| 2026-05-03 23:12 | 34.98073 | -85.26743 | 31580 ft | 422 kts | 324° |
| 2026-05-03 23:12 | 35.00540 | -85.28664 | 31119 ft | 418 kts | 324° |
| 2026-05-03 23:13 | 35.02980 | -85.30567 | 30653 ft | 414 kts | 324° |
| 2026-05-03 23:13 | 35.05401 | -85.32456 | 30213 ft | 411 kts | 324° |
| 2026-05-03 23:13 | 35.07774 | -85.34309 | 29696 ft | 407 kts | 324° |
| 2026-05-03 23:13 | 35.10153 | -85.36168 | 29187 ft | 403 kts | 324° |
| 2026-05-03 23:14 | 35.12499 | -85.38001 | 28734 ft | 398 kts | 324° |
| 2026-05-03 23:14 | 35.14049 | -85.39214 | 28404 ft | 395 kts | 324° |
| 2026-05-03 23:14 | 35.16976 | -85.41786 | 27848 ft | 385 kts | 313° |
| 2026-05-03 23:14 | 35.18243 | -85.43347 | 27576 ft | 381 kts | 311° |
| 2026-05-03 23:15 | 35.20030 | -85.45668 | 27166 ft | 376 kts | 310° |
| 2026-05-03 23:15 | 35.21809 | -85.48010 | 26748 ft | 375 kts | 310° |
| 2026-05-03 23:15 | 35.23601 | -85.50359 | 26349 ft | 377 kts | 311° |
| 2026-05-03 23:15 | 35.25407 | -85.52707 | 25940 ft | 380 kts | 311° |
| 2026-05-03 23:16 | 35.27205 | -85.55027 | 25534 ft | 379 kts | 311° |
| 2026-05-03 23:16 | 35.29019 | -85.57357 | 25138 ft | 376 kts | 311° |
| 2026-05-03 23:16 | 35.30822 | -85.59663 | 24719 ft | 374 kts | 311° |
| 2026-05-03 23:16 | 35.32614 | -85.61950 | 24410 ft | 369 kts | 311° |
| 2026-05-03 23:17 | 35.34380 | -85.64209 | 24223 ft | 368 kts | 311° |
| 2026-05-03 23:17 | 35.36159 | -85.66491 | 23904 ft | 371 kts | 311° |
| 2026-05-03 23:17 | 35.37944 | -85.68779 | 23527 ft | 369 kts | 311° |
| 2026-05-03 23:17 | 35.39708 | -85.71041 | 23119 ft | 365 kts | 311° |
| 2026-05-03 23:18 | 35.41438 | -85.73261 | 22745 ft | 361 kts | 311° |
| 2026-05-03 23:18 | 35.43168 | -85.75483 | 22419 ft | 358 kts | 311° |
| 2026-05-03 23:18 | 35.44882 | -85.77684 | 22045 ft | 355 kts | 312° |
| 2026-05-03 23:18 | 35.46585 | -85.79874 | 21687 ft | 352 kts | 312° |
| 2026-05-03 23:19 | 35.48252 | -85.82019 | 21345 ft | 350 kts | 312° |
| 2026-05-03 23:19 | 35.49938 | -85.84190 | 20998 ft | 349 kts | 312° |
| 2026-05-03 23:19 | 35.51613 | -85.86351 | 20654 ft | 348 kts | 312° |
| 2026-05-03 23:19 | 35.53285 | -85.88505 | 20307 ft | 348 kts | 313° |
| 2026-05-03 23:20 | 35.54953 | -85.90653 | 19968 ft | 347 kts | 313° |
| 2026-05-03 23:20 | 35.56584 | -85.92790 | 19626 ft | 346 kts | 312° |
| 2026-05-03 23:20 | 35.58214 | -85.94971 | 19290 ft | 345 kts | 312° |
| 2026-05-03 23:20 | 35.59832 | -85.97148 | 18954 ft | 344 kts | 312° |
| 2026-05-03 23:21 | 35.61452 | -85.99326 | 18618 ft | 343 kts | 312° |
| 2026-05-03 23:21 | 35.63043 | -86.01461 | 18268 ft | 342 kts | 313° |
| 2026-05-03 23:21 | 35.64640 | -86.03601 | 17874 ft | 333 kts | 313° |
| 2026-05-03 23:21 | 35.66203 | -86.05698 | 17527 ft | 331 kts | 313° |
| 2026-05-03 23:22 | 35.69280 | -86.09824 | 16848 ft | 332 kts | 313° |
| 2026-05-03 23:22 | 35.70848 | -86.11930 | 16491 ft | 330 kts | 312° |
| 2026-05-03 23:22 | 35.72298 | -86.14098 | 16164 ft | 326 kts | 308° |
| 2026-05-03 23:23 | 35.73629 | -86.16306 | 15843 ft | 324 kts | 307° |
| 2026-05-03 23:23 | 35.74954 | -86.18561 | 15525 ft | 325 kts | 307° |
| 2026-05-03 23:23 | 35.76285 | -86.20827 | 15208 ft | 326 kts | 307° |
| 2026-05-03 23:23 | 35.77621 | -86.23090 | 14890 ft | 327 kts | 307° |
| 2026-05-03 23:24 | 35.78966 | -86.25355 | 14553 ft | 327 kts | 307° |
| 2026-05-03 23:24 | 35.80305 | -86.27603 | 14238 ft | 324 kts | 307° |
| 2026-05-03 23:24 | 35.81633 | -86.29827 | 13904 ft | 318 kts | 307° |
| 2026-05-03 23:24 | 35.82935 | -86.32006 | 13567 ft | 314 kts | 307° |
| 2026-05-03 23:25 | 35.84222 | -86.34159 | 13259 ft | 317 kts | 307° |
| 2026-05-03 23:25 | 35.85542 | -86.36367 | 12939 ft | 319 kts | 307° |
| 2026-05-03 23:25 | 35.86855 | -86.38565 | 12555 ft | 317 kts | 307° |
| 2026-05-03 23:25 | 35.88162 | -86.40753 | 12230 ft | 315 kts | 307° |
| 2026-05-03 23:26 | 35.89443 | -86.42901 | 11929 ft | 313 kts | 307° |
| 2026-05-03 23:26 | 35.90716 | -86.45036 | 11617 ft | 302 kts | 307° |
| 2026-05-03 23:26 | 35.91936 | -86.47085 | 11313 ft | 291 kts | 307° |
| 2026-05-03 23:26 | 35.93114 | -86.49062 | 11072 ft | 281 kts | 307° |
| 2026-05-03 23:27 | 35.94255 | -86.50978 | 10802 ft | 273 kts | 307° |
| 2026-05-03 23:27 | 35.95378 | -86.52866 | 10546 ft | 274 kts | 307° |
| 2026-05-03 23:27 | 35.96514 | -86.54776 | 10289 ft | 277 kts | 307° |
| 2026-05-03 23:27 | 35.97661 | -86.56705 | 9997 ft | 277 kts | 307° |
| 2026-05-03 23:28 | 35.98923 | -86.58446 | 9462 ft | 276 kts | 324° |
| 2026-05-03 23:28 | 36.00672 | -86.59368 | 8986 ft | 275 kts | 347° |
| 2026-05-03 23:28 | 36.02584 | -86.59426 | 8496 ft | 277 kts | 7° |
| 2026-05-03 23:28 | 36.04454 | -86.58808 | 8061 ft | 276 kts | 15° |
| 2026-05-03 23:29 | 36.06261 | -86.58043 | 7691 ft | 272 kts | 16° |
| 2026-05-03 23:29 | 36.08012 | -86.57302 | 7328 ft | 267 kts | 15° |
| 2026-05-03 23:29 | 36.09767 | -86.56575 | 6953 ft | 264 kts | 15° |
| 2026-05-03 23:29 | 36.11500 | -86.55864 | 6587 ft | 260 kts | 15° |
| 2026-05-03 23:30 | 36.13217 | -86.55169 | 6211 ft | 258 kts | 15° |
| 2026-05-03 23:30 | 36.14918 | -86.54484 | 5824 ft | 256 kts | 15° |
| 2026-05-03 23:30 | 36.16605 | -86.53806 | 5451 ft | 254 kts | 15° |
| 2026-05-03 23:30 | 36.18250 | -86.53143 | 5124 ft | 248 kts | 15° |
| 2026-05-03 23:31 | 36.19867 | -86.52491 | 4758 ft | 240 kts | 15° |
| 2026-05-03 23:31 | 36.21432 | -86.51861 | 4381 ft | 235 kts | 15° |
| 2026-05-03 23:31 | 36.22984 | -86.51245 | 4056 ft | 232 kts | 13° |
| 2026-05-03 23:31 | 36.24550 | -86.50980 | 4017 ft | 224 kts | 352° |
| 2026-05-03 23:32 | 36.25986 | -86.51500 | 3997 ft | 208 kts | 327° |
| 2026-05-03 23:32 | 36.27070 | -86.52582 | 4005 ft | 196 kts | 307° |
| 2026-05-03 23:32 | 36.27827 | -86.53928 | 4021 ft | 192 kts | 292° |
| 2026-05-03 23:32 | 36.28208 | -86.55500 | 4022 ft | 189 kts | 276° |
| 2026-05-03 23:33 | 36.28183 | -86.57056 | 3999 ft | 172 kts | 259° |
| 2026-05-03 23:33 | 36.27837 | -86.58414 | 4000 ft | 161 kts | 244° |
| 2026-05-03 23:33 | 36.27240 | -86.59562 | 3994 ft | 154 kts | 230° |
| 2026-05-03 23:33 | 36.26493 | -86.60405 | 4019 ft | 139 kts | 217° |
| 2026-05-03 23:34 | 36.25665 | -86.60960 | 3869 ft | 141 kts | 205° |
| 2026-05-03 23:34 | 36.24645 | -86.61412 | 3191 ft | 164 kts | 200° |
| 2026-05-03 23:34 | 36.23545 | -86.61852 | 2689 ft | 162 kts | 200° |
| 2026-05-03 23:34 | 36.22542 | -86.62250 | 2467 ft | 141 kts | 201° |
| 2026-05-03 23:35 | 36.21683 | -86.62593 | 2289 ft | 126 kts | 201° |
| 2026-05-03 23:35 | 36.20816 | -86.62942 | 2140 ft | 135 kts | 200° |
| 2026-05-03 23:35 | 36.19926 | -86.63298 | 1935 ft | 133 kts | 200° |
| 2026-05-03 23:35 | 36.19031 | -86.63655 | 1765 ft | 136 kts | 201° |
| 2026-05-03 23:36 | 36.18127 | -86.64018 | 1581 ft | 137 kts | 201° |
| 2026-05-03 23:36 | 36.17234 | -86.64395 | 1396 ft | 135 kts | 200° |
| 2026-05-03 23:36 | 36.16334 | -86.64749 | 1248 ft | 134 kts | 200° |
| 2026-05-03 23:36 | 36.15416 | -86.65102 | 1027 ft | 141 kts | 201° |
| 2026-05-03 23:37 | 36.14488 | -86.65482 | 815 ft | 138 kts | 200° |
| 2026-05-03 23:37 | 36.13587 | -86.65839 | 636 ft | 134 kts | 200° |
| 2026-05-03 23:37 | 36.12702 | -86.66193 | 572 ft | 128 kts | 196° |
| 2026-05-03 23:37 | 36.11984 | -86.66483 | 587 ft | 82 kts | 197° |
| 2026-05-03 23:38 | 36.11708 | -86.66603 | 597 ft | 10 kts | 207° |
| 2026-05-03 23:38 | 36.11658 | -86.66654 | 599 ft | 9 kts | 237° |
| 2026-05-03 23:38 | 36.11673 | -86.66724 | 596 ft | 10 kts | 320° |
| 2026-05-03 23:38 | 36.11751 | -86.66716 | 592 ft | 13 kts | 18° |
| 2026-05-03 23:39 | 36.11855 | -86.66674 | 585 ft | 19 kts | 18° |
| 2026-05-03 23:39 | 36.12000 | -86.66616 | 578 ft | 25 kts | 18° |
| 2026-05-03 23:39 | 36.12133 | -86.66564 | 577 ft | 10 kts | 18° |
| 2026-05-03 23:39 | 36.12208 | -86.66534 | 574 ft | 13 kts | 18° |
| 2026-05-03 23:40 | 36.12281 | -86.66555 | 570 ft | 13 kts | 297° |
| 2026-05-03 23:40 | 36.12316 | -86.66681 | 570 ft | 18 kts | 287° |
| 2026-05-03 23:40 | 36.12360 | -86.66826 | 567 ft | 19 kts | 300° |
| 2026-05-03 23:40 | 36.12422 | -86.66921 | 561 ft | 6 kts | 314° |
| 2026-05-03 23:41 | 36.12459 | -86.66950 | 569 ft | 7 kts | 349° |
| 2026-05-03 23:41 | 36.12507 | -86.66936 | 565 ft | 8 kts | 25° |
| 2026-05-03 23:41 | 36.12555 | -86.66902 | 568 ft | 8 kts | 31° |
| 2026-05-03 23:41 | 36.12607 | -86.66864 | 567 ft | 9 kts | 34° |
| 2026-05-03 23:42 | 36.12656 | -86.66814 | 566 ft | 10 kts | 41° |
| 2026-05-03 23:42 | 36.12698 | -86.66768 | 570 ft | 9 kts | 41° |
| 2026-05-03 23:42 | 36.12753 | -86.66718 | 567 ft | 10 kts | 20° |
| 2026-05-03 23:42 | 36.12826 | -86.66722 | 569 ft | 12 kts | 336° |
| 2026-05-03 23:43 | 36.12878 | -86.66781 | 567 ft | 10 kts | 311° |
| 2026-05-03 23:43 | 36.12926 | -86.66849 | 574 ft | 9 kts | 311° |
| 2026-05-03 23:43 | 36.12937 | -86.66866 | 571 ft | 0 kts | 293° |
| 2026-05-03 23:43 | 36.12930 | -86.66874 | 570 ft | 6 kts | 227° |
| 2026-05-03 23:44 | 36.12890 | -86.66914 | 574 ft | 2 kts | 217° |
| 2026-05-03 23:44 | 36.12874 | -86.66929 | 569 ft | 4 kts | 217° |
| 2026-05-03 23:44 | 36.12868 | -86.66935 | 570 ft | 1 kts | 217° |
| 2026-05-03 23:44 | 36.12862 | -86.66941 | 571 ft | 0 kts | 217° |